Rysy — C6ZA3 — position and weather

sailwx.info

Track history (hours):
 
Tides and Currents Weather Stations Pressure Air Temp Water Temp Dewpoint Dewpoint Depression Visibility Wind Speed Wind Dir Waves Ship Positions

Rysy

Last reported at 2018-Feb-12 05:35 UTC. Time now 2018-Feb-25 08:27 UTC.
Position N 36°11' E 014°38'.
Warning: this ship's position is 13 days out of date.

Length 229 m; draft 13.4 m.

Type: Cargo ship. MMSI: 311051200.

Date/timePositionNaut miles runAvg speedWind from/ knotsBaromVisibWave heightAir tempDewpointWater temp
2018-Feb-12 05:35N 36°11' E 014°38'111.8
2018-Feb-12 05:30N 36°11' E 014°37'611.9
2018-Feb-12 05:00N 36°14' E 014°31'611.7
2018-Feb-12 04:30N 36°16' E 014°24'611.7
2018-Feb-12 03:58N 36°18' E 014°16'611.7
2018-Feb-12 03:30N 36°19' E 014°10'  
2018-Feb-08 18:00N 35°53' W 005°53'  
2018-Feb-04 13:26N 50°28' W 000°16'511.3
2018-Feb-04 13:00N 50°29' W 000°08'510.7
2018-Feb-04 12:30N 50°31' W 000°00'510.2
2018-Feb-04 12:00N 50°32' E 000°07'5 9.9
2018-Feb-04 11:30N 50°34' E 000°15'1610.5
2018-Feb-04 10:00N 50°39' E 000°38'3013.3
2018-Feb-04 07:45N 50°58' E 001°15'413.1
2018-Feb-04 07:29N 51°00' E 001°19'612.6
2018-Feb-04 07:00N 51°04' E 001°27'612.2
2018-Feb-04 06:31N 51°07' E 001°34'611.6
2018-Feb-04 06:01N 51°11' E 001°41'611.0
2018-Feb-04 05:30N 51°15' E 001°47'510.5
2018-Feb-04 05:00N 51°20' E 001°51'510.2
2018-Feb-04 04:30N 51°25' E 001°55'510.2
2018-Feb-04 04:00N 51°29' E 001°60'510.4
2018-Feb-04 03:29N 51°33' E 002°05'48111.5
2018-Feb-02 09:50N 57°49' E 010°44'412.6
2018-Feb-02 09:30N 57°46' E 010°50'612.5
2018-Feb-02 09:00N 57°42' E 010°59'612.4
2018-Feb-02 08:31N 57°38' E 011°07'612.7
2018-Feb-02 08:01N 57°33' E 011°16'612.5
2018-Feb-02 07:30N 57°29' E 011°24'612.1
2018-Feb-02 07:00N 57°24' E 011°29'612.1
2018-Feb-02 06:31N 57°18' E 011°33'612.0
2018-Feb-02 06:00N 57°12' E 011°37'  
Track history (hours):
 
Tides and Currents Weather Stations Pressure Air Temp Water Temp Dewpoint Dewpoint Depression Visibility Wind Speed Wind Dir Waves Ship Positions

Rysy

Last reported at 2018-Feb-12 05:35 UTC. Time now 2018-Feb-25 08:27 UTC.
Position N 36°11' E 014°38'.
Warning: this ship's position is 13 days out of date.

Length 229 m; draft 13.4 m.

Type: Cargo ship. MMSI: 311051200.

Date/timePositionNaut miles runAvg speedWind from/ knotsBaromVisibWave heightAir tempDewpointWater temp
2018-Feb-12 05:35N 36°11' E 014°38'111.8
2018-Feb-12 05:30N 36°11' E 014°37'611.9
2018-Feb-12 05:00N 36°14' E 014°31'611.7
2018-Feb-12 04:30N 36°16' E 014°24'611.7
2018-Feb-12 03:58N 36°18' E 014°16'611.7
2018-Feb-12 03:30N 36°19' E 014°10'  
2018-Feb-08 18:00N 35°53' W 005°53'  
2018-Feb-04 13:26N 50°28' W 000°16'511.3
2018-Feb-04 13:00N 50°29' W 000°08'510.7
2018-Feb-04 12:30N 50°31' W 000°00'510.2
2018-Feb-04 12:00N 50°32' E 000°07'5 9.9
2018-Feb-04 11:30N 50°34' E 000°15'1610.5
2018-Feb-04 10:00N 50°39' E 000°38'3013.3
2018-Feb-04 07:45N 50°58' E 001°15'413.1
2018-Feb-04 07:29N 51°00' E 001°19'612.6
2018-Feb-04 07:00N 51°04' E 001°27'612.2
2018-Feb-04 06:31N 51°07' E 001°34'611.6
2018-Feb-04 06:01N 51°11' E 001°41'611.0
2018-Feb-04 05:30N 51°15' E 001°47'510.5
2018-Feb-04 05:00N 51°20' E 001°51'510.2
2018-Feb-04 04:30N 51°25' E 001°55'510.2
2018-Feb-04 04:00N 51°29' E 001°60'510.4
2018-Feb-04 03:29N 51°33' E 002°05'48111.5
2018-Feb-02 09:50N 57°49' E 010°44'412.6
2018-Feb-02 09:30N 57°46' E 010°50'612.5
2018-Feb-02 09:00N 57°42' E 010°59'612.4
2018-Feb-02 08:31N 57°38' E 011°07'612.7
2018-Feb-02 08:01N 57°33' E 011°16'612.5
2018-Feb-02 07:30N 57°29' E 011°24'612.1
2018-Feb-02 07:00N 57°24' E 011°29'612.1
2018-Feb-02 06:31N 57°18' E 011°33'612.0
2018-Feb-02 06:00N 57°12' E 011°37'  

Dump ship's entire track history